sensor_id;sensor_type;location;lat;lon;timestamp;pressure;altitude;pressure_sealevel;temperature;humidity
35649;BME280;21768;48.562;13.414;2023-04-06T00:01:12;97632.84;;;4.18;45.85
35649;BME280;21768;48.562;13.414;2023-04-06T00:03:38;97633.00;;;4.11;46.14
35649;BME280;21768;48.562;13.414;2023-04-06T00:06:03;97632.44;;;4.05;46.15
35649;BME280;21768;48.562;13.414;2023-04-06T00:08:30;97631.84;;;3.99;46.12
35649;BME280;21768;48.562;13.414;2023-04-06T00:10:55;97630.28;;;3.91;45.83
35649;BME280;21768;48.562;13.414;2023-04-06T00:13:23;97628.69;;;3.83;46.16
35649;BME280;21768;48.562;13.414;2023-04-06T00:15:49;97626.34;;;3.75;45.92
35649;BME280;21768;48.562;13.414;2023-04-06T00:18:15;97621.69;;;3.70;45.92
35649;BME280;21768;48.562;13.414;2023-04-06T00:20:40;97635.47;;;3.66;46.29
35649;BME280;21768;48.562;13.414;2023-04-06T00:23:08;97629.91;;;3.60;46.19
35649;BME280;21768;48.562;13.414;2023-04-06T00:25:35;97632.25;;;3.59;46.16
35649;BME280;21768;48.562;13.414;2023-04-06T00:28:00;97629.59;;;3.57;46.53
35649;BME280;21768;48.562;13.414;2023-04-06T00:30:28;97624.16;;;3.53;46.54
35649;BME280;21768;48.562;13.414;2023-04-06T00:32:55;97628.88;;;3.50;46.69
35649;BME280;21768;48.562;13.414;2023-04-06T00:35:21;97632.56;;;3.45;47.25
35649;BME280;21768;48.562;13.414;2023-04-06T00:37:47;97626.41;;;3.41;47.33
35649;BME280;21768;48.562;13.414;2023-04-06T00:40:16;97622.28;;;3.33;47.63
35649;BME280;21768;48.562;13.414;2023-04-06T00:42:42;97621.09;;;3.29;48.12
35649;BME280;21768;48.562;13.414;2023-04-06T00:45:09;97622.13;;;3.23;48.56
35649;BME280;21768;48.562;13.414;2023-04-06T00:47:35;97621.56;;;3.17;48.49
35649;BME280;21768;48.562;13.414;2023-04-06T00:50:02;97615.25;;;3.12;48.73
35649;BME280;21768;48.562;13.414;2023-04-06T00:52:27;97621.69;;;3.10;48.75
35649;BME280;21768;48.562;13.414;2023-04-06T00:54:53;97619.19;;;3.10;49.16
35649;BME280;21768;48.562;13.414;2023-04-06T00:57:19;97629.03;;;3.08;49.16
35649;BME280;21768;48.562;13.414;2023-04-06T00:59:46;97618.75;;;3.05;49.20
35649;BME280;21768;48.562;13.414;2023-04-06T01:02:12;97623.44;;;3.02;49.31
35649;BME280;21768;48.562;13.414;2023-04-06T01:04:37;97629.00;;;2.99;49.65
35649;BME280;21768;48.562;13.414;2023-04-06T01:07:04;97631.97;;;2.95;49.84
35649;BME280;21768;48.562;13.414;2023-04-06T01:09:30;97629.91;;;2.91;49.79
35649;BME280;21768;48.562;13.414;2023-04-06T01:11:57;97624.75;;;2.90;49.90
35649;BME280;21768;48.562;13.414;2023-04-06T01:14:24;97627.22;;;2.81;50.03
35649;BME280;21768;48.562;13.414;2023-04-06T01:16:52;97627.81;;;2.79;50.50
35649;BME280;21768;48.562;13.414;2023-04-06T01:19:22;97623.09;;;2.73;50.71
35649;BME280;21768;48.562;13.414;2023-04-06T01:21:49;97621.78;;;2.68;50.50
35649;BME280;21768;48.562;13.414;2023-04-06T01:24:15;97625.44;;;2.63;50.35
35649;BME280;21768;48.562;13.414;2023-04-06T01:26:42;97624.81;;;2.57;50.49
35649;BME280;21768;48.562;13.414;2023-04-06T01:29:08;97614.84;;;2.48;50.78
35649;BME280;21768;48.562;13.414;2023-04-06T01:31:34;97621.56;;;2.41;50.96
35649;BME280;21768;48.562;13.414;2023-04-06T01:33:59;97621.09;;;2.36;51.18
35649;BME280;21768;48.562;13.414;2023-04-06T01:36:25;97619.19;;;2.33;51.21
35649;BME280;21768;48.562;13.414;2023-04-06T01:38:51;97609.50;;;2.28;51.42
35649;BME280;21768;48.562;13.414;2023-04-06T01:41:19;97613.44;;;2.17;51.73
35649;BME280;21768;48.562;13.414;2023-04-06T01:43:47;97609.28;;;2.09;52.34
35649;BME280;21768;48.562;13.414;2023-04-06T01:46:13;97606.81;;;2.09;52.49
35649;BME280;21768;48.562;13.414;2023-04-06T01:48:39;97611.47;;;2.06;52.85
35649;BME280;21768;48.562;13.414;2023-04-06T01:51:06;97598.56;;;2.01;53.02
35649;BME280;21768;48.562;13.414;2023-04-06T01:53:32;97607.47;;;1.99;53.28
35649;BME280;21768;48.562;13.414;2023-04-06T01:55:58;97606.47;;;1.97;53.51
35649;BME280;21768;48.562;13.414;2023-04-06T01:58:23;97605.88;;;2.00;53.50
35649;BME280;21768;48.562;13.414;2023-04-06T02:00:49;97602.38;;;1.98;53.73
35649;BME280;21768;48.562;13.414;2023-04-06T02:03:15;97604.72;;;1.96;53.80
35649;BME280;21768;48.562;13.414;2023-04-06T02:05:40;97597.09;;;1.95;53.73
35649;BME280;21768;48.562;13.414;2023-04-06T02:08:07;97597.09;;;1.95;53.90
35649;BME280;21768;48.562;13.414;2023-04-06T02:10:34;97597.41;;;1.98;53.88
35649;BME280;21768;48.562;13.414;2023-04-06T02:13:00;97604.09;;;1.99;53.69
35649;BME280;21768;48.562;13.414;2023-04-06T02:15:26;97603.22;;;1.98;53.56
35649;BME280;21768;48.562;13.414;2023-04-06T02:17:52;97602.38;;;1.98;53.68
35649;BME280;21768;48.562;13.414;2023-04-06T02:20:18;97595.91;;;2.00;53.75
35649;BME280;21768;48.562;13.414;2023-04-06T02:22:44;97602.66;;;2.01;53.66
35649;BME280;21768;48.562;13.414;2023-04-06T02:25:12;97606.19;;;2.03;53.72
35649;BME280;21768;48.562;13.414;2023-04-06T02:27:38;97600.47;;;2.04;53.66
35649;BME280;21768;48.562;13.414;2023-04-06T02:30:04;97602.09;;;2.03;53.85
35649;BME280;21768;48.562;13.414;2023-04-06T02:32:31;97609.22;;;2.00;54.21
35649;BME280;21768;48.562;13.414;2023-04-06T02:34:57;97607.63;;;2.01;54.42
35649;BME280;21768;48.562;13.414;2023-04-06T02:37:24;97606.75;;;2.00;54.51
35649;BME280;21768;48.562;13.414;2023-04-06T02:39:50;97605.88;;;2.00;54.81
35649;BME280;21768;48.562;13.414;2023-04-06T02:42:16;97613.78;;;1.96;54.94
35649;BME280;21768;48.562;13.414;2023-04-06T02:44:43;97613.47;;;1.93;55.28
35649;BME280;21768;48.562;13.414;2023-04-06T02:47:09;97616.94;;;1.86;55.40
35649;BME280;21768;48.562;13.414;2023-04-06T02:49:37;97615.91;;;1.84;55.53
35649;BME280;21768;48.562;13.414;2023-04-06T02:52:03;97613.66;;;1.79;55.85
35649;BME280;21768;48.562;13.414;2023-04-06T02:54:29;97615.56;;;1.73;55.88
35649;BME280;21768;48.562;13.414;2023-04-06T02:56:56;97611.88;;;1.69;55.90
35649;BME280;21768;48.562;13.414;2023-04-06T02:59:24;97608.34;;;1.67;56.00
35649;BME280;21768;48.562;13.414;2023-04-06T03:01:51;97611.81;;;1.60;56.09
35649;BME280;21768;48.562;13.414;2023-04-06T03:04:19;97599.47;;;1.53;56.41
35649;BME280;21768;48.562;13.414;2023-04-06T03:06:47;97609.09;;;1.50;56.40
35649;BME280;21768;48.562;13.414;2023-04-06T03:09:15;97615.56;;;1.48;56.60
35649;BME280;21768;48.562;13.414;2023-04-06T03:11:40;97608.81;;;1.47;56.76
35649;BME280;21768;48.562;13.414;2023-04-06T03:14:09;97610.25;;;1.45;56.78
35649;BME280;21768;48.562;13.414;2023-04-06T03:16:35;97612.91;;;1.47;56.95
35649;BME280;21768;48.562;13.414;2023-04-06T03:19:01;97612.03;;;1.46;57.00
35649;BME280;21768;48.562;13.414;2023-04-06T03:21:28;97619.63;;;1.48;56.99
35649;BME280;21768;48.562;13.414;2023-04-06T03:23:53;97614.06;;;1.50;57.11
35649;BME280;21768;48.562;13.414;2023-04-06T03:26:19;97614.06;;;1.50;57.01
35649;BME280;21768;48.562;13.414;2023-04-06T03:28:45;97623.72;;;1.47;57.22
35649;BME280;21768;48.562;13.414;2023-04-06T03:31:11;97619.16;;;1.43;57.22
35649;BME280;21768;48.562;13.414;2023-04-06T03:33:37;97608.34;;;1.43;57.14
35649;BME280;21768;48.562;13.414;2023-04-06T03:36:03;97621.50;;;1.42;57.42
35649;BME280;21768;48.562;13.414;2023-04-06T03:38:30;97623.97;;;1.42;57.45
35649;BME280;21768;48.562;13.414;2023-04-06T03:40:56;97617.09;;;1.39;57.53
35649;BME280;21768;48.562;13.414;2023-04-06T03:43:23;97624.53;;;1.39;57.73
35649;BME280;21768;48.562;13.414;2023-04-06T03:45:49;97633.91;;;1.42;57.55
35649;BME280;21768;48.562;13.414;2023-04-06T03:48:15;97632.00;;;1.39;57.34
35649;BME280;21768;48.562;13.414;2023-04-06T03:50:41;97628.47;;;1.37;57.72
35649;BME280;21768;48.562;13.414;2023-04-06T03:53:07;97638.09;;;1.34;57.93
35649;BME280;21768;48.562;13.414;2023-04-06T03:55:33;97637.03;;;1.32;57.95
35649;BME280;21768;48.562;13.414;2023-04-06T03:58:00;97644.66;;;1.33;58.31
35649;BME280;21768;48.562;13.414;2023-04-06T04:00:26;97642.75;;;1.31;58.27
35649;BME280;21768;48.562;13.414;2023-04-06T04:02:52;97648.75;;;1.33;58.47
35649;BME280;21768;48.562;13.414;2023-04-06T04:05:21;97651.97;;;1.32;58.53
35649;BME280;21768;48.562;13.414;2023-04-06T04:07:53;97650.34;;;1.32;58.58
35649;BME280;21768;48.562;13.414;2023-04-06T04:10:19;97655.88;;;1.30;58.49
35649;BME280;21768;48.562;13.414;2023-04-06T04:12:45;97647.38;;;1.28;58.69
35649;BME280;21768;48.562;13.414;2023-04-06T04:15:11;97649.56;;;1.25;58.89
35649;BME280;21768;48.562;13.414;2023-04-06T04:17:36;97651.16;;;1.24;58.76
35649;BME280;21768;48.562;13.414;2023-04-06T04:20:03;97655.56;;;1.27;59.05
35649;BME280;21768;48.562;13.414;2023-04-06T04:22:29;97652.03;;;1.25;58.69
35649;BME280;21768;48.562;13.414;2023-04-06T04:24:56;97652.31;;;1.19;59.00
35649;BME280;21768;48.562;13.414;2023-04-06T04:27:22;97651.81;;;1.15;59.18
35649;BME280;21768;48.562;13.414;2023-04-06T04:29:48;97652.94;;;1.10;59.30
35649;BME280;21768;48.562;13.414;2023-04-06T04:32:14;97655.59;;;1.11;59.12
35649;BME280;21768;48.562;13.414;2023-04-06T04:34:40;97663.91;;;1.12;59.34
35649;BME280;21768;48.562;13.414;2023-04-06T04:37:06;97669.78;;;1.12;59.45
35649;BME280;21768;48.562;13.414;2023-04-06T04:39:32;97667.28;;;1.12;59.43
35649;BME280;21768;48.562;13.414;2023-04-06T04:41:58;97673.84;;;1.12;59.52
35649;BME280;21768;48.562;13.414;2023-04-06T04:44:23;97681.63;;;1.15;59.32
35649;BME280;21768;48.562;13.414;2023-04-06T04:46:50;97680.75;;;1.14;59.47
35649;BME280;21768;48.562;13.414;2023-04-06T04:49:16;97683.56;;;1.17;59.69
35649;BME280;21768;48.562;13.414;2023-04-06T04:51:42;97678.75;;;1.19;59.92
35649;BME280;21768;48.562;13.414;2023-04-06T04:54:08;97685.06;;;1.24;59.84
35649;BME280;21768;48.562;13.414;2023-04-06T04:56:34;97682.19;;;1.28;59.91
35649;BME280;21768;48.562;13.414;2023-04-06T04:59:00;97680.34;;;1.34;60.16
35649;BME280;21768;48.562;13.414;2023-04-06T05:01:25;97678.88;;;1.36;59.87
35649;BME280;21768;48.562;13.414;2023-04-06T05:03:52;97682.75;;;1.41;60.07
35649;BME280;21768;48.562;13.414;2023-04-06T05:06:18;97674.44;;;1.49;59.88
35649;BME280;21768;48.562;13.414;2023-04-06T05:08:44;97685.03;;;1.55;59.80
35649;BME280;21768;48.562;13.414;2023-04-06T05:11:10;97678.53;;;1.64;59.82
35649;BME280;21768;48.562;13.414;2023-04-06T05:13:37;97684.13;;;1.70;59.68
35649;BME280;21768;48.562;13.414;2023-04-06T05:16:02;97689.47;;;1.82;59.75
35649;BME280;21768;48.562;13.414;2023-04-06T05:18:28;97686.16;;;1.90;59.58
35649;BME280;21768;48.562;13.414;2023-04-06T05:20:54;97691.63;;;1.95;59.51
35649;BME280;21768;48.562;13.414;2023-04-06T05:23:20;97685.47;;;2.00;59.50
35649;BME280;21768;48.562;13.414;2023-04-06T05:25:46;97688.59;;;2.06;59.54
35649;BME280;21768;48.562;13.414;2023-04-06T05:28:12;97687.63;;;2.13;59.53
35649;BME280;21768;48.562;13.414;2023-04-06T05:30:39;97681.81;;;2.21;59.54
35649;BME280;21768;48.562;13.414;2023-04-06T05:33:05;97690.34;;;2.31;59.58
35649;BME280;21768;48.562;13.414;2023-04-06T05:35:30;97692.41;;;2.35;59.32
35649;BME280;21768;48.562;13.414;2023-04-06T05:37:56;97694.50;;;2.39;59.62
35649;BME280;21768;48.562;13.414;2023-04-06T05:40:22;97692.91;;;2.49;59.62
35649;BME280;21768;48.562;13.414;2023-04-06T05:42:47;97686.50;;;2.59;59.36
35649;BME280;21768;48.562;13.414;2023-04-06T05:45:15;97691.06;;;2.63;59.43
35649;BME280;21768;48.562;13.414;2023-04-06T05:47:44;97691.53;;;2.68;59.50
35649;BME280;21768;48.562;13.414;2023-04-06T05:50:11;97686.41;;;2.75;59.35
35649;BME280;21768;48.562;13.414;2023-04-06T05:52:36;97688.19;;;2.85;59.20
35649;BME280;21768;48.562;13.414;2023-04-06T05:55:03;97691.44;;;2.92;58.97
35649;BME280;21768;48.562;13.414;2023-04-06T05:57:28;97692.34;;;3.01;58.86
35649;BME280;21768;48.562;13.414;2023-04-06T05:59:54;97691.31;;;3.08;58.60
35649;BME280;21768;48.562;13.414;2023-04-06T06:02:20;97689.00;;;3.18;58.54
35649;BME280;21768;48.562;13.414;2023-04-06T06:04:46;97695.03;;;3.29;58.07
35649;BME280;21768;48.562;13.414;2023-04-06T06:07:14;97703.25;;;3.36;58.11
35649;BME280;21768;48.562;13.414;2023-04-06T06:09:40;97701.06;;;3.39;58.05
35649;BME280;21768;48.562;13.414;2023-04-06T06:12:06;97702.97;;;3.42;57.85
35649;BME280;21768;48.562;13.414;2023-04-06T06:14:33;97698.53;;;3.48;57.92
35649;BME280;21768;48.562;13.414;2023-04-06T06:16:59;97702.97;;;3.59;57.81
35649;BME280;21768;48.562;13.414;2023-04-06T06:19:25;97707.38;;;3.70;57.57
35649;BME280;21768;48.562;13.414;2023-04-06T06:21:52;97703.25;;;3.80;57.56
35649;BME280;21768;48.562;13.414;2023-04-06T06:24:18;97707.66;;;3.82;57.24
35649;BME280;21768;48.562;13.414;2023-04-06T06:26:44;97705.88;;;3.90;57.22
35649;BME280;21768;48.562;13.414;2023-04-06T06:29:09;97702.94;;;3.94;56.82
35649;BME280;21768;48.562;13.414;2023-04-06T06:31:35;97707.03;;;4.02;56.81
35649;BME280;21768;48.562;13.414;2023-04-06T06:34:05;97704.97;;;4.06;56.80
35649;BME280;21768;48.562;13.414;2023-04-06T06:36:32;97703.22;;;4.14;56.71
35649;BME280;21768;48.562;13.414;2023-04-06T06:38:58;97707.56;;;4.25;56.41
35649;BME280;21768;48.562;13.414;2023-04-06T06:41:25;97706.66;;;4.33;55.98
35649;BME280;21768;48.562;13.414;2023-04-06T06:43:51;97703.13;;;4.40;55.84
35649;BME280;21768;48.562;13.414;2023-04-06T06:46:17;97703.97;;;4.49;55.53
35649;BME280;21768;48.562;13.414;2023-04-06T06:48:44;97694.56;;;4.55;54.86
35649;BME280;21768;48.562;13.414;2023-04-06T06:51:11;97697.91;;;4.64;54.75
35649;BME280;21768;48.562;13.414;2023-04-06T06:53:37;97693.59;;;4.72;54.54
35649;BME280;21768;48.562;13.414;2023-04-06T06:56:07;97690.47;;;4.83;54.11
35649;BME280;21768;48.562;13.414;2023-04-06T06:58:34;97691.44;;;4.94;54.05
35649;BME280;21768;48.562;13.414;2023-04-06T07:01:01;97693.41;;;5.06;53.42
35649;BME280;21768;48.562;13.414;2023-04-06T07:03:27;97697.16;;;5.20;53.24
35649;BME280;21768;48.562;13.414;2023-04-06T07:05:53;97695.75;;;5.32;52.73
35649;BME280;21768;48.562;13.414;2023-04-06T07:08:22;97701.44;;;5.40;52.81
35649;BME280;21768;48.562;13.414;2023-04-06T07:10:50;97701.97;;;5.46;52.53
35649;BME280;21768;48.562;13.414;2023-04-06T07:13:17;97699.28;;;5.53;52.20
35649;BME280;21768;48.562;13.414;2023-04-06T07:15:47;97696.84;;;5.63;52.09
35649;BME280;21768;48.562;13.414;2023-04-06T07:18:13;97702.38;;;5.69;51.90
35649;BME280;21768;48.562;13.414;2023-04-06T07:20:39;97701.97;;;5.84;52.15
35649;BME280;21768;48.562;13.414;2023-04-06T07:23:05;97698.69;;;5.93;51.91
35649;BME280;21768;48.562;13.414;2023-04-06T07:25:31;97700.63;;;6.06;52.07
35649;BME280;21768;48.562;13.414;2023-04-06T07:27:56;97677.75;;;6.22;51.30
35649;BME280;21768;48.562;13.414;2023-04-06T07:30:22;97695.00;;;6.37;50.60
35649;BME280;21768;48.562;13.414;2023-04-06T07:32:54;97693.03;;;6.54;49.78
35649;BME280;21768;48.562;13.414;2023-04-06T07:35:25;97694.09;;;6.66;48.91
35649;BME280;21768;48.562;13.414;2023-04-06T07:37:55;97682.91;;;6.72;46.11
35649;BME280;21768;48.562;13.414;2023-04-06T07:40:21;97686.34;;;6.83;46.06
35649;BME280;21768;48.562;13.414;2023-04-06T07:42:47;97693.88;;;7.03;45.46
35649;BME280;21768;48.562;13.414;2023-04-06T07:45:13;97692.13;;;7.23;44.74
35649;BME280;21768;48.562;13.414;2023-04-06T07:47:39;97685.38;;;7.42;44.38
35649;BME280;21768;48.562;13.414;2023-04-06T07:50:05;97682.06;;;7.63;43.52
35649;BME280;21768;48.562;13.414;2023-04-06T07:52:31;97683.84;;;7.96;43.10
35649;BME280;21768;48.562;13.414;2023-04-06T07:54:58;97674.94;;;8.32;42.99
35649;BME280;21768;48.562;13.414;2023-04-06T07:57:24;97685.28;;;8.57;42.36
35649;BME280;21768;48.562;13.414;2023-04-06T07:59:49;97686.63;;;8.85;41.60
35649;BME280;21768;48.562;13.414;2023-04-06T08:02:15;97677.44;;;9.19;40.63
35649;BME280;21768;48.562;13.414;2023-04-06T08:04:41;97684.41;;;9.45;40.16
35649;BME280;21768;48.562;13.414;2023-04-06T08:07:07;97675.81;;;10.11;38.67
35649;BME280;21768;48.562;13.414;2023-04-06T08:09:32;97678.41;;;11.34;36.48
35649;BME280;21768;48.562;13.414;2023-04-06T08:11:58;97668.22;;;12.92;34.74
35649;BME280;21768;48.562;13.414;2023-04-06T08:14:24;97663.66;;;14.18;32.75
35649;BME280;21768;48.562;13.414;2023-04-06T08:16:50;97659.81;;;14.24;32.07
35649;BME280;21768;48.562;13.414;2023-04-06T08:19:16;97661.75;;;14.59;31.94
35649;BME280;21768;48.562;13.414;2023-04-06T08:21:45;97650.84;;;15.77;30.13
35649;BME280;21768;48.562;13.414;2023-04-06T08:24:11;97647.16;;;17.17;27.88
35649;BME280;21768;48.562;13.414;2023-04-06T08:26:37;97655.97;;;18.06;27.15
35649;BME280;21768;48.562;13.414;2023-04-06T08:29:03;97656.63;;;18.22;26.34
35649;BME280;21768;48.562;13.414;2023-04-06T08:31:30;97650.53;;;18.41;26.09
35649;BME280;21768;48.562;13.414;2023-04-06T08:33:56;97648.34;;;19.68;24.95
35649;BME280;21768;48.562;13.414;2023-04-06T08:36:22;97651.03;;;20.50;22.96
35649;BME280;21768;48.562;13.414;2023-04-06T08:38:48;97647.72;;;20.00;24.20
35649;BME280;21768;48.562;13.414;2023-04-06T08:41:15;97650.50;;;19.81;24.67
35649;BME280;21768;48.562;13.414;2023-04-06T08:43:47;97639.88;;;20.23;23.83
35649;BME280;21768;48.562;13.414;2023-04-06T08:46:14;97642.28;;;21.02;23.36
35649;BME280;21768;48.562;13.414;2023-04-06T08:48:42;97639.44;;;22.23;21.83
35649;BME280;21768;48.562;13.414;2023-04-06T08:51:12;97638.25;;;23.76;20.21
35649;BME280;21768;48.562;13.414;2023-04-06T08:53:38;97636.91;;;24.52;19.02
35649;BME280;21768;48.562;13.414;2023-04-06T08:56:05;97637.78;;;23.49;19.23
35649;BME280;21768;48.562;13.414;2023-04-06T08:58:37;97642.25;;;22.34;20.43
35649;BME280;21768;48.562;13.414;2023-04-06T09:01:09;97640.34;;;20.65;22.31
35649;BME280;21768;48.562;13.414;2023-04-06T09:03:39;97635.97;;;21.52;21.46
35649;BME280;21768;48.562;13.414;2023-04-06T09:06:05;97644.25;;;21.12;21.65
35649;BME280;21768;48.562;13.414;2023-04-06T09:08:33;97639.38;;;19.54;21.58
35649;BME280;21768;48.562;13.414;2023-04-06T09:10:58;97643.66;;;17.75;22.71
35649;BME280;21768;48.562;13.414;2023-04-06T09:13:25;97645.56;;;18.66;22.33
35649;BME280;21768;48.562;13.414;2023-04-06T09:16:04;97641.47;;;21.04;19.92
35649;BME280;21768;48.562;13.414;2023-04-06T09:18:34;97631.78;;;22.25;19.37
35649;BME280;21768;48.562;13.414;2023-04-06T09:21:04;97645.84;;;19.69;20.34
35649;BME280;21768;48.562;13.414;2023-04-06T09:23:31;97637.28;;;19.20;21.15
35649;BME280;21768;48.562;13.414;2023-04-06T09:26:08;97632.69;;;17.77;22.73
35649;BME280;21768;48.562;13.414;2023-04-06T09:31:30;97650.50;;;15.03;24.38
35649;BME280;21768;48.562;13.414;2023-04-06T09:33:58;97648.50;;;14.34;26.15
35649;BME280;21768;48.562;13.414;2023-04-06T09:36:35;97651.81;;;15.13;26.92
35649;BME280;21768;48.562;13.414;2023-04-06T09:39:06;97643.25;;;18.50;22.24
35649;BME280;21768;48.562;13.414;2023-04-06T09:41:34;97636.50;;;18.30;21.08
35649;BME280;21768;48.562;13.414;2023-04-06T09:46:32;97631.28;;;17.44;21.98
35649;BME280;21768;48.562;13.414;2023-04-06T09:49:04;97632.91;;;16.84;22.31
35649;BME280;21768;48.562;13.414;2023-04-06T09:51:47;97630.13;;;16.97;22.76
35649;BME280;21768;48.562;13.414;2023-04-06T09:54:20;97637.47;;;16.17;23.44
35649;BME280;21768;48.562;13.414;2023-04-06T09:56:51;97638.03;;;15.42;24.72
35649;BME280;21768;48.562;13.414;2023-04-06T09:59:44;97637.94;;;15.06;24.40
35649;BME280;21768;48.562;13.414;2023-04-06T10:05:35;97640.16;;;14.68;25.94
35649;BME280;21768;48.562;13.414;2023-04-06T10:08:06;97635.97;;;15.01;23.51
35649;BME280;21768;48.562;13.414;2023-04-06T10:10:34;97630.63;;;14.63;24.70
35649;BME280;21768;48.562;13.414;2023-04-06T10:13:00;97629.16;;;14.21;24.23
35649;BME280;21768;48.562;13.414;2023-04-06T10:15:28;97618.72;;;16.89;23.51
35649;BME280;21768;48.562;13.414;2023-04-06T10:17:54;97612.09;;;20.93;20.33
35649;BME280;21768;48.562;13.414;2023-04-06T10:20:29;97615.09;;;19.95;20.31
35649;BME280;21768;48.562;13.414;2023-04-06T10:23:04;97606.69;;;20.84;20.83
35649;BME280;21768;48.562;13.414;2023-04-06T10:25:32;97606.63;;;22.13;19.29
35649;BME280;21768;48.562;13.414;2023-04-06T10:28:05;97599.84;;;21.46;20.71
35649;BME280;21768;48.562;13.414;2023-04-06T10:30:32;97589.25;;;23.71;19.29
35649;BME280;21768;48.562;13.414;2023-04-06T10:32:58;97593.78;;;24.42;17.39
35649;BME280;21768;48.562;13.414;2023-04-06T10:35:24;97584.78;;;25.58;16.05
35649;BME280;21768;48.562;13.414;2023-04-06T10:38:03;97589.41;;;25.91;15.21
35649;BME280;21768;48.562;13.414;2023-04-06T10:40:29;97584.56;;;24.62;15.95
35649;BME280;21768;48.562;13.414;2023-04-06T10:43:07;97574.81;;;25.08;16.39
35649;BME280;21768;48.562;13.414;2023-04-06T10:45:33;97582.00;;;25.38;15.29
35649;BME280;21768;48.562;13.414;2023-04-06T10:47:58;97584.41;;;26.17;15.53
35649;BME280;21768;48.562;13.414;2023-04-06T10:50:24;97568.31;;;26.74;14.34
35649;BME280;21768;48.562;13.414;2023-04-06T10:53:00;97573.63;;;27.03;14.10
35649;BME280;21768;48.562;13.414;2023-04-06T10:55:28;97577.53;;;26.20;14.63
35649;BME280;21768;48.562;13.414;2023-04-06T10:57:54;97569.91;;;26.40;14.03
35649;BME280;21768;48.562;13.414;2023-04-06T11:00:19;97563.31;;;27.17;13.58
35649;BME280;21768;48.562;13.414;2023-04-06T11:02:45;97572.94;;;27.71;13.03
35649;BME280;21768;48.562;13.414;2023-04-06T11:05:12;97562.34;;;28.84;12.28
35649;BME280;21768;48.562;13.414;2023-04-06T11:07:39;97556.38;;;28.50;12.26
35649;BME280;21768;48.562;13.414;2023-04-06T11:10:06;97567.72;;;27.74;12.56
35649;BME280;21768;48.562;13.414;2023-04-06T11:12:33;97562.53;;;24.22;14.45
35649;BME280;21768;48.562;13.414;2023-04-06T11:15:01;97562.03;;;21.09;16.58
35649;BME280;21768;48.562;13.414;2023-04-06T11:17:30;97572.59;;;18.75;18.36
35649;BME280;21768;48.562;13.414;2023-04-06T11:19:57;97568.53;;;17.90;20.13
35649;BME280;21768;48.562;13.414;2023-04-06T11:22:23;97551.94;;;20.52;17.81
35649;BME280;21768;48.562;13.414;2023-04-06T11:24:49;97564.16;;;21.57;17.16
35649;BME280;21768;48.562;13.414;2023-04-06T11:27:15;97551.00;;;24.59;15.18
35649;BME280;21768;48.562;13.414;2023-04-06T11:29:41;97543.47;;;27.34;13.07
35649;BME280;21768;48.562;13.414;2023-04-06T11:32:07;97533.16;;;27.63;12.25
35649;BME280;21768;48.562;13.414;2023-04-06T11:34:39;97533.13;;;27.46;12.71
35649;BME280;21768;48.562;13.414;2023-04-06T11:37:11;97542.16;;;26.19;12.49
35649;BME280;21768;48.562;13.414;2023-04-06T11:39:50;97533.47;;;23.77;14.45
35649;BME280;21768;48.562;13.414;2023-04-06T11:44:51;97536.66;;;19.98;17.14
35649;BME280;21768;48.562;13.414;2023-04-06T11:47:18;97534.47;;;18.58;18.84
35649;BME280;21768;48.562;13.414;2023-04-06T11:49:46;97540.91;;;16.97;19.53
35649;BME280;21768;48.562;13.414;2023-04-06T11:52:23;97535.84;;;16.02;21.16
35649;BME280;21768;48.562;13.414;2023-04-06T11:54:50;97532.59;;;15.69;22.14
35649;BME280;21768;48.562;13.414;2023-04-06T11:57:17;97531.22;;;15.58;22.88
35649;BME280;21768;48.562;13.414;2023-04-06T11:59:44;97525.09;;;15.54;23.05
35649;BME280;21768;48.562;13.414;2023-04-06T12:02:10;97527.72;;;15.56;23.22
35649;BME280;21768;48.562;13.414;2023-04-06T12:04:36;97525.69;;;15.67;22.98
35649;BME280;21768;48.562;13.414;2023-04-06T12:07:03;97518.41;;;15.74;22.77
35649;BME280;21768;48.562;13.414;2023-04-06T12:09:29;97520.75;;;15.70;22.58
35649;BME280;21768;48.562;13.414;2023-04-06T12:11:55;97512.56;;;15.57;22.17
35649;BME280;21768;48.562;13.414;2023-04-06T12:14:21;97503.94;;;15.55;23.02
35649;BME280;21768;48.562;13.414;2023-04-06T12:16:47;97509.75;;;15.71;22.56
35649;BME280;21768;48.562;13.414;2023-04-06T12:19:13;97512.94;;;15.84;21.86
35649;BME280;21768;48.562;13.414;2023-04-06T12:21:39;97505.78;;;15.76;21.85
35649;BME280;21768;48.562;13.414;2023-04-06T12:24:06;97499.34;;;15.30;22.30
35649;BME280;21768;48.562;13.414;2023-04-06T12:26:32;97497.91;;;14.84;22.84
35649;BME280;21768;48.562;13.414;2023-04-06T12:28:59;97499.88;;;14.89;23.76
35649;BME280;21768;48.562;13.414;2023-04-06T12:31:34;97496.91;;;14.98;22.28
35649;BME280;21768;48.562;13.414;2023-04-06T12:33:59;97497.75;;;14.64;22.22
35649;BME280;21768;48.562;13.414;2023-04-06T12:36:27;97490.09;;;14.47;24.36
35649;BME280;21768;48.562;13.414;2023-04-06T12:38:53;97496.03;;;14.63;23.61
35649;BME280;21768;48.562;13.414;2023-04-06T12:41:19;97496.59;;;14.58;23.18
35649;BME280;21768;48.562;13.414;2023-04-06T12:43:45;97503.66;;;14.31;24.17
35649;BME280;21768;48.562;13.414;2023-04-06T12:46:12;97490.19;;;14.48;25.20
35649;BME280;21768;48.562;13.414;2023-04-06T12:48:38;97495.56;;;14.54;23.97
35649;BME280;21768;48.562;13.414;2023-04-06T12:51:05;97488.88;;;14.24;22.72
35649;BME280;21768;48.562;13.414;2023-04-06T12:53:32;97492.69;;;14.00;23.67
35649;BME280;21768;48.562;13.414;2023-04-06T12:55:58;97498.09;;;14.06;24.08
35649;BME280;21768;48.562;13.414;2023-04-06T12:58:25;97492.63;;;14.30;25.71
35649;BME280;21768;48.562;13.414;2023-04-06T13:00:55;97477.56;;;14.50;23.42
35649;BME280;21768;48.562;13.414;2023-04-06T13:03:22;97489.91;;;14.60;24.90
35649;BME280;21768;48.562;13.414;2023-04-06T13:05:51;97489.00;;;14.58;24.33
35649;BME280;21768;48.562;13.414;2023-04-06T13:08:18;97485.09;;;14.48;22.99